Time;durP1;ratioP1;P1;durP2;ratioP2;P2;SDS_P1;SDS_P2;PMS_P1;PMS_P2;Temp;Humidity;BMP_temperature;BMP_pressure;BME280_temperature;BME280_humidity;BME280_pressure;Samples;Min_cycle;Max_cycle;Signal;HPM_P1;HPM_P2
2022/04/20 00:00:40;;;;;;;21.37;10.90;;;;;;;;;;4434387;32;20738;-55
2022/04/20 00:03:06;;;;;;;20.40;11.53;;;;;;;;;;4441340;32;20271;-53
2022/04/20 00:05:33;;;;;;;20.03;12.27;;;;;;;;;;4446088;32;20408;-54
2022/04/20 00:08:00;;;;;;;29.07;14.77;;;;;;;;;;4433144;32;20262;-54
2022/04/20 00:10:26;;;;;;;33.37;18.03;;;;;;;;;;4434337;32;20212;-54
2022/04/20 00:12:52;;;;;;;34.03;15.87;;;;;;;;;;4434308;32;20637;-54
2022/04/20 00:15:17;;;;;;;32.90;16.30;;;;;;;;;;4434614;32;20311;-55
2022/04/20 00:17:43;;;;;;;36.13;15.90;;;;;;;;;;4433551;32;20305;-54
2022/04/20 00:20:09;;;;;;;28.73;14.77;;;;;;;;;;4434113;32;20295;-54
2022/04/20 00:22:34;;;;;;;28.80;13.07;;;;;;;;;;4434458;32;20677;-54
2022/04/20 00:25:00;;;;;;;25.57;13.23;;;;;;;;;;4434332;32;20763;-56
2022/04/20 00:27:25;;;;;;;22.40;11.70;;;;;;;;;;4433646;32;20216;-55
2022/04/20 00:29:51;;;;;;;22.37;11.93;;;;;;;;;;4432650;32;20327;-56
2022/04/20 00:32:16;;;;;;;22.77;12.17;;;;;;;;;;4433957;32;20236;-55
2022/04/20 00:34:42;;;;;;;22.90;10.90;;;;;;;;;;4434359;32;20370;-54
2022/04/20 00:37:07;;;;;;;26.27;13.00;;;;;;;;;;4433700;32;20644;-54
2022/04/20 00:39:33;;;;;;;26.67;11.80;;;;;;;;;;4434043;32;20424;-55
2022/04/20 00:41:58;;;;;;;22.40;12.67;;;;;;;;;;4428712;32;20665;-53
2022/04/20 00:44:25;;;;;;;23.07;11.63;;;;;;;;;;4434378;32;20339;-53
2022/04/20 00:46:52;;;;;;;27.00;12.47;;;;;;;;;;4433123;32;20333;-53
2022/04/20 00:49:18;;;;;;;18.33;11.00;;;;;;;;;;4433343;32;20269;-52
2022/04/20 00:52:09;;;;;;;24.67;13.60;;;;;;;;;;4432776;32;20347;-53
2022/04/20 00:54:35;;;;;;;26.53;13.33;;;;;;;;;;4435879;32;20232;-52
2022/04/20 00:57:00;;;;;;;30.03;14.43;;;;;;;;;;4434077;32;20683;-53
2022/04/20 00:59:28;;;;;;;28.93;12.03;;;;;;;;;;4444003;32;20228;-53
2022/04/20 01:01:53;;;;;;;24.17;13.70;;;;;;;;;;4438562;32;20244;-53
2022/04/20 01:04:19;;;;;;;24.47;13.37;;;;;;;;;;4448640;32;20630;-53
2022/04/20 01:06:45;;;;;;;33.30;18.83;;;;;;;;;;4423508;32;20325;-53
2022/04/20 01:09:11;;;;;;;37.70;18.97;;;;;;;;;;4433645;32;20750;-53
2022/04/20 01:11:37;;;;;;;37.97;19.97;;;;;;;;;;4432975;32;20979;-53
2022/04/20 01:14:03;;;;;;;45.20;21.33;;;;;;;;;;4433850;32;20264;-53
2022/04/20 01:16:29;;;;;;;43.53;21.27;;;;;;;;;;4433505;32;20392;-53
2022/04/20 01:18:55;;;;;;;27.60;17.37;;;;;;;;;;4433539;32;20236;-54
2022/04/20 01:21:22;;;;;;;21.93;12.50;;;;;;;;;;4433124;32;20240;-54
2022/04/20 01:23:47;;;;;;;18.17;10.50;;;;;;;;;;4433435;32;20585;-54
2022/04/20 01:26:13;;;;;;;18.10;12.00;;;;;;;;;;4433284;32;20205;-52
2022/04/20 01:28:43;;;;;;;18.17;10.23;;;;;;;;;;4433413;32;20228;-53
2022/04/20 01:31:13;;;;;;;22.47;14.27;;;;;;;;;;4432652;32;20244;-53
2022/04/20 01:33:39;;;;;;;25.07;12.30;;;;;;;;;;4433230;32;20679;-53
2022/04/20 01:36:04;;;;;;;24.37;14.50;;;;;;;;;;4433238;32;20287;-53
2022/04/20 01:38:30;;;;;;;19.67;11.67;;;;;;;;;;4437895;32;20237;-53
2022/04/20 01:40:56;;;;;;;30.63;11.80;;;;;;;;;;4432078;32;20213;-54
2022/04/20 01:43:21;;;;;;;20.27;11.73;;;;;;;;;;4432837;32;20264;-53
2022/04/20 01:45:46;;;;;;;16.40;11.07;;;;;;;;;;4433226;32;20230;-53
2022/04/20 01:48:12;;;;;;;24.37;11.93;;;;;;;;;;4434079;32;20592;-54
2022/04/20 01:51:46;;;;;;;19.67;10.93;;;;;;;;;;4432692;32;20217;-53
2022/04/20 01:53:24;;;;;;;22.63;10.97;;;;;;;;;;4432825;32;20255;-53
2022/04/20 01:55:49;;;;;;;20.67;11.50;;;;;;;;;;4431866;32;20221;-54
2022/04/20 01:58:15;;;;;;;23.23;12.37;;;;;;;;;;4418199;32;20240;-53
2022/04/20 02:00:40;;;;;;;26.30;12.53;;;;;;;;;;4432050;32;20277;-53
2022/04/20 02:03:06;;;;;;;19.17;11.80;;;;;;;;;;4439926;32;20239;-53
2022/04/20 02:05:32;;;;;;;23.77;11.93;;;;;;;;;;4443815;32;20419;-53
2022/04/20 02:07:57;;;;;;;20.83;10.80;;;;;;;;;;4432325;32;20656;-54
2022/04/20 02:10:23;;;;;;;29.20;14.37;;;;;;;;;;4432991;32;20224;-54
2022/04/20 02:12:48;;;;;;;25.83;12.53;;;;;;;;;;4432681;32;20279;-54
2022/04/20 02:15:14;;;;;;;21.00;13.00;;;;;;;;;;4432773;32;20507;-53
2022/04/20 02:17:39;;;;;;;25.03;14.80;;;;;;;;;;4432147;32;20281;-53
2022/04/20 02:20:05;;;;;;;23.53;14.47;;;;;;;;;;4432312;32;20301;-53
2022/04/20 02:22:31;;;;;;;28.60;15.97;;;;;;;;;;4432528;32;20233;-53
2022/04/20 02:24:59;;;;;;;27.17;14.60;;;;;;;;;;4432799;32;20362;-53
2022/04/20 02:27:25;;;;;;;28.13;14.40;;;;;;;;;;4431891;32;20259;-53
2022/04/20 02:29:51;;;;;;;24.50;13.93;;;;;;;;;;4444721;32;20292;-53
2022/04/20 02:32:16;;;;;;;32.13;16.90;;;;;;;;;;4431929;32;20240;-53
2022/04/20 02:34:42;;;;;;;24.97;16.63;;;;;;;;;;4432557;32;20304;-52
2022/04/20 02:37:07;;;;;;;27.30;15.67;;;;;;;;;;4447605;32;20238;-55
2022/04/20 02:39:33;;;;;;;26.47;15.60;;;;;;;;;;4439292;32;20632;-53
2022/04/20 02:41:59;;;;;;;26.47;15.43;;;;;;;;;;4432499;32;20209;-52
2022/04/20 02:44:25;;;;;;;22.03;14.23;;;;;;;;;;4432422;32;20224;-52
2022/04/20 02:46:51;;;;;;;23.43;13.23;;;;;;;;;;4432452;32;20318;-52
2022/04/20 02:49:16;;;;;;;25.07;15.40;;;;;;;;;;4443049;32;20311;-51
2022/04/20 02:51:41;;;;;;;18.40;12.83;;;;;;;;;;4432348;32;20592;-53
2022/04/20 02:54:07;;;;;;;30.60;16.17;;;;;;;;;;4429706;32;20339;-52
2022/04/20 02:56:32;;;;;;;30.87;17.20;;;;;;;;;;4429111;32;20248;-52
2022/04/20 02:58:58;;;;;;;37.20;16.67;;;;;;;;;;4431390;32;20263;-53
2022/04/20 03:01:23;;;;;;;36.50;18.77;;;;;;;;;;4432027;32;20667;-53
2022/04/20 03:03:49;;;;;;;36.53;20.93;;;;;;;;;;4443973;32;20291;-53
2022/04/20 03:06:15;;;;;;;36.33;19.90;;;;;;;;;;4431805;32;20341;-54
2022/04/20 03:08:41;;;;;;;36.73;21.57;;;;;;;;;;4424292;32;20300;-53
2022/04/20 03:11:08;;;;;;;50.57;24.73;;;;;;;;;;4431677;32;20742;-54
2022/04/20 03:13:33;;;;;;;41.13;21.13;;;;;;;;;;4432422;32;20290;-54
2022/04/20 03:15:58;;;;;;;37.27;21.83;;;;;;;;;;4447614;32;20267;-53
2022/04/20 03:18:24;;;;;;;42.80;20.23;;;;;;;;;;4423512;32;20296;-54
2022/04/20 03:20:50;;;;;;;35.90;19.33;;;;;;;;;;4434113;32;20339;-53
2022/04/20 03:23:15;;;;;;;34.50;15.80;;;;;;;;;;4435225;32;20293;-52
2022/04/20 03:25:41;;;;;;;31.17;16.77;;;;;;;;;;4435244;32;20643;-52
2022/04/20 03:28:07;;;;;;;33.00;17.47;;;;;;;;;;4405654;32;20244;-53
2022/04/20 03:30:32;;;;;;;33.93;16.40;;;;;;;;;;4419850;32;20280;-53
2022/04/20 03:32:58;;;;;;;39.37;17.10;;;;;;;;;;4420047;32;20275;-53
2022/04/20 03:35:24;;;;;;;33.57;14.80;;;;;;;;;;4426775;32;20338;-53
2022/04/20 03:37:50;;;;;;;33.63;14.90;;;;;;;;;;4450114;32;20296;-54
2022/04/20 03:40:15;;;;;;;31.00;14.90;;;;;;;;;;4450446;32;20200;-54
2022/04/20 03:42:42;;;;;;;30.87;15.40;;;;;;;;;;4450587;32;20752;-53
2022/04/20 03:45:07;;;;;;;25.60;14.87;;;;;;;;;;4450301;32;20215;-53
2022/04/20 03:47:33;;;;;;;25.03;15.20;;;;;;;;;;4435886;32;20649;-53
2022/04/20 03:49:58;;;;;;;36.57;16.50;;;;;;;;;;4435248;32;20209;-53
2022/04/20 03:52:24;;;;;;;26.00;15.57;;;;;;;;;;4419184;32;20208;-53
2022/04/20 03:54:50;;;;;;;30.27;15.00;;;;;;;;;;4422504;32;20266;-53
2022/04/20 03:57:16;;;;;;;33.60;15.87;;;;;;;;;;4434650;32;20251;-53
2022/04/20 03:59:42;;;;;;;24.77;14.63;;;;;;;;;;4434587;32;20579;-53
2022/04/20 04:02:07;;;;;;;26.17;14.73;;;;;;;;;;4434302;32;20288;-55
2022/04/20 04:04:33;;;;;;;30.03;12.27;;;;;;;;;;4435364;32;20209;-53
2022/04/20 04:06:59;;;;;;;23.53;13.60;;;;;;;;;;4434785;32;20301;-53
2022/04/20 04:09:25;;;;;;;19.07;12.47;;;;;;;;;;4435357;32;20246;-54
2022/04/20 04:11:53;;;;;;;21.07;13.40;;;;;;;;;;4435013;32;20291;-53
2022/04/20 04:14:19;;;;;;;24.97;13.33;;;;;;;;;;4434749;32;20240;-53
2022/04/20 04:16:44;;;;;;;31.80;14.93;;;;;;;;;;4434810;32;20251;-53
2022/04/20 04:19:11;;;;;;;28.57;15.93;;;;;;;;;;4434356;32;20240;-53
2022/04/20 04:21:38;;;;;;;34.50;18.00;;;;;;;;;;4434208;32;20232;-53
2022/04/20 04:24:08;;;;;;;38.40;19.00;;;;;;;;;;4434508;32;20292;-53
2022/04/20 04:26:34;;;;;;;33.83;19.13;;;;;;;;;;4433906;32;20220;-53
2022/04/20 04:28:59;;;;;;;43.37;22.47;;;;;;;;;;4433457;32;20252;-53
2022/04/20 04:31:25;;;;;;;49.37;23.63;;;;;;;;;;4433922;32;20251;-53
2022/04/20 04:33:50;;;;;;;47.17;25.47;;;;;;;;;;4434060;32;20586;-53
2022/04/20 04:36:16;;;;;;;58.87;30.70;;;;;;;;;;4433509;32;20732;-52
2022/04/20 04:38:41;;;;;;;61.27;32.93;;;;;;;;;;4443392;32;20252;-52
2022/04/20 04:41:07;;;;;;;63.97;32.50;;;;;;;;;;4432723;32;20358;-52
2022/04/20 04:43:33;;;;;;;57.03;31.53;;;;;;;;;;4433599;32;20361;-51
2022/04/20 04:48:47;;;;;;;40.23;22.50;;;;;;;;;;4433675;32;20317;-54
2022/04/20 04:51:12;;;;;;;40.30;23.93;;;;;;;;;;4432336;32;20224;-55
2022/04/20 04:53:38;;;;;;;46.97;22.63;;;;;;;;;;4434069;32;20270;-55
2022/04/20 04:56:04;;;;;;;34.33;21.03;;;;;;;;;;4433985;32;20313;-55
2022/04/20 04:58:29;;;;;;;38.80;21.20;;;;;;;;;;4432496;32;20281;-55
2022/04/20 05:00:55;;;;;;;38.03;21.97;;;;;;;;;;4434379;32;20401;-53
2022/04/20 05:03:20;;;;;;;36.97;22.80;;;;;;;;;;4441704;32;20698;-53
2022/04/20 05:05:46;;;;;;;44.87;26.37;;;;;;;;;;4443959;32;20643;-54
2022/04/20 05:08:12;;;;;;;44.83;24.53;;;;;;;;;;4432740;32;20244;-54
2022/04/20 05:10:38;;;;;;;55.80;26.73;;;;;;;;;;4433820;32;20652;-55
2022/04/20 05:13:05;;;;;;;51.63;25.93;;;;;;;;;;4433763;32;20282;-55
2022/04/20 05:15:30;;;;;;;52.63;28.10;;;;;;;;;;4433376;32;20599;-55
2022/04/20 05:17:55;;;;;;;48.37;26.93;;;;;;;;;;4439194;32;20282;-54
2022/04/20 05:20:21;;;;;;;58.40;30.03;;;;;;;;;;4433400;32;20291;-55
2022/04/20 05:22:47;;;;;;;60.87;30.27;;;;;;;;;;4432602;32;20368;-55
2022/04/20 05:25:13;;;;;;;72.80;34.90;;;;;;;;;;4433438;32;20687;-55
2022/04/20 05:27:39;;;;;;;69.10;35.27;;;;;;;;;;4431815;32;20252;-55
2022/04/20 05:30:06;;;;;;;54.07;33.57;;;;;;;;;;4431763;32;20696;-54
2022/04/20 05:32:32;;;;;;;69.83;35.57;;;;;;;;;;4434027;32;20262;-56
2022/04/20 05:34:58;;;;;;;79.83;43.27;;;;;;;;;;4434789;32;20280;-56
2022/04/20 05:42:52;;;;;;;131.47;60.07;;;;;;;;;;4430508;32;20243;-56
2022/04/20 05:45:18;;;;;;;123.00;58.47;;;;;;;;;;4417542;32;20277;-56
2022/04/20 05:47:44;;;;;;;130.07;56.07;;;;;;;;;;4417649;32;20308;-56
2022/04/20 05:50:09;;;;;;;127.10;61.27;;;;;;;;;;4418469;32;20213;-53
2022/04/20 05:52:36;;;;;;;168.73;72.13;;;;;;;;;;4418110;32;20701;-54
2022/04/20 05:55:01;;;;;;;192.47;77.83;;;;;;;;;;4418128;32;20523;-53
2022/04/20 05:57:27;;;;;;;168.00;68.13;;;;;;;;;;4417564;32;20348;-53
2022/04/20 05:59:52;;;;;;;161.23;67.50;;;;;;;;;;4417657;32;20272;-54
2022/04/20 06:02:18;;;;;;;158.27;69.53;;;;;;;;;;4430897;32;20262;-54
2022/04/20 06:04:43;;;;;;;177.03;73.73;;;;;;;;;;4448254;32;20288;-54
2022/04/20 06:07:09;;;;;;;184.70;76.30;;;;;;;;;;4405862;32;20236;-55
2022/04/20 06:09:34;;;;;;;183.33;74.23;;;;;;;;;;4429251;32;20322;-55
2022/04/20 06:12:00;;;;;;;175.43;73.03;;;;;;;;;;4416147;32;20251;-55
2022/04/20 06:14:25;;;;;;;154.60;69.67;;;;;;;;;;4432305;32;20350;-54
2022/04/20 06:16:50;;;;;;;178.07;76.27;;;;;;;;;;4414217;32;20373;-53
2022/04/20 06:19:17;;;;;;;166.83;70.00;;;;;;;;;;4432288;32;20254;-55
2022/04/20 06:21:42;;;;;;;134.97;57.07;;;;;;;;;;4431564;32;20240;-54
2022/04/20 06:24:08;;;;;;;152.27;64.40;;;;;;;;;;4430507;32;20568;-55
2022/04/20 06:26:33;;;;;;;157.67;65.97;;;;;;;;;;4416182;32;20256;-54
2022/04/20 06:28:59;;;;;;;157.60;61.60;;;;;;;;;;4431199;32;20244;-55
2022/04/20 06:31:24;;;;;;;116.07;54.63;;;;;;;;;;4429754;32;20223;-54
2022/04/20 06:33:51;;;;;;;126.27;50.00;;;;;;;;;;4430324;32;20390;-54
2022/04/20 06:36:17;;;;;;;119.80;51.67;;;;;;;;;;4430354;32;20410;-55
2022/04/20 06:38:42;;;;;;;112.93;51.07;;;;;;;;;;4441518;32;20702;-55
2022/04/20 06:41:08;;;;;;;105.53;50.23;;;;;;;;;;4419791;32;20453;-54
2022/04/20 06:43:35;;;;;;;112.23;52.03;;;;;;;;;;4447822;32;20256;-53
2022/04/20 06:46:01;;;;;;;111.03;50.17;;;;;;;;;;4433293;32;20258;-54
2022/04/20 06:48:27;;;;;;;114.67;56.67;;;;;;;;;;4433036;32;20312;-55
2022/04/20 06:50:52;;;;;;;95.03;50.33;;;;;;;;;;4433002;32;20322;-54
2022/04/20 06:58:48;;;;;;;92.93;49.27;;;;;;;;;;4431394;32;20258;-54
2022/04/20 07:01:15;;;;;;;94.57;53.07;;;;;;;;;;4431853;32;20216;-55
2022/04/20 07:03:41;;;;;;;107.90;53.57;;;;;;;;;;4431316;32;20562;-58
2022/04/20 07:06:06;;;;;;;127.57;69.33;;;;;;;;;;4431537;32;20688;-54
2022/04/20 07:08:33;;;;;;;110.37;64.50;;;;;;;;;;4430959;32;20648;-55
2022/04/20 07:10:58;;;;;;;101.87;51.93;;;;;;;;;;4431406;32;20240;-55
2022/04/20 07:13:24;;;;;;;84.07;44.10;;;;;;;;;;4431641;32;20306;-55
2022/04/20 07:15:50;;;;;;;78.30;38.23;;;;;;;;;;4431376;32;20306;-55
2022/04/20 07:18:16;;;;;;;68.40;37.10;;;;;;;;;;4431919;32;20240;-55
2022/04/20 07:20:42;;;;;;;55.00;32.03;;;;;;;;;;4430972;32;20309;-55
2022/04/20 07:23:09;;;;;;;52.20;27.93;;;;;;;;;;4429813;32;20304;-56
2022/04/20 07:25:36;;;;;;;50.07;29.70;;;;;;;;;;4416745;32;20729;-55
2022/04/20 07:28:02;;;;;;;48.43;26.80;;;;;;;;;;4431973;32;20307;-54
2022/04/20 07:30:28;;;;;;;95.87;55.00;;;;;;;;;;4431128;32;20280;-55
2022/04/20 07:32:54;;;;;;;138.00;63.17;;;;;;;;;;4430857;32;20249;-54
2022/04/20 07:35:19;;;;;;;132.57;69.70;;;;;;;;;;4426758;32;20280;-55
2022/04/20 07:37:45;;;;;;;130.63;72.03;;;;;;;;;;4427715;32;20290;-55
2022/04/20 07:40:12;;;;;;;128.67;70.83;;;;;;;;;;4427973;32;20460;-55
2022/04/20 07:42:38;;;;;;;117.70;64.10;;;;;;;;;;4427817;32;20245;-55
2022/04/20 07:45:04;;;;;;;98.73;55.90;;;;;;;;;;4427562;32;20283;-57
2022/04/20 07:47:30;;;;;;;95.10;53.90;;;;;;;;;;4441484;32;20616;-55
2022/04/20 07:52:48;;;;;;;77.70;43.43;;;;;;;;;;4415602;32;20259;-55
2022/04/20 07:55:28;;;;;;;78.80;42.80;;;;;;;;;;4402308;32;20541;-56
2022/04/20 07:57:56;;;;;;;103.53;49.40;;;;;;;;;;4429331;32;20243;-57
2022/04/20 08:00:22;;;;;;;86.47;45.93;;;;;;;;;;4417304;32;20205;-55
2022/04/20 08:02:49;;;;;;;92.53;52.73;;;;;;;;;;4431120;32;20361;-56
2022/04/20 08:05:16;;;;;;;93.50;51.00;;;;;;;;;;4432899;32;20224;-56
2022/04/20 08:07:43;;;;;;;86.77;50.70;;;;;;;;;;4434067;32;20271;-55
2022/04/20 08:10:10;;;;;;;78.27;42.97;;;;;;;;;;4434356;32;20227;-56
2022/04/20 08:12:40;;;;;;;70.17;39.57;;;;;;;;;;4418742;32;20260;-56
2022/04/20 08:15:08;;;;;;;84.63;43.93;;;;;;;;;;4419270;32;20301;-55
2022/04/20 08:17:34;;;;;;;79.97;46.17;;;;;;;;;;4431362;32;20268;-56
2022/04/20 08:19:59;;;;;;;68.43;40.00;;;;;;;;;;4418936;32;20617;-55
2022/04/20 08:22:26;;;;;;;70.47;39.93;;;;;;;;;;4433774;32;20318;-55
2022/04/20 08:24:52;;;;;;;60.70;37.07;;;;;;;;;;4433752;32;20690;-55
2022/04/20 08:27:20;;;;;;;70.23;42.00;;;;;;;;;;4419256;32;20797;-55
2022/04/20 08:29:47;;;;;;;62.70;42.13;;;;;;;;;;4419696;32;20239;-55
2022/04/20 08:32:13;;;;;;;70.40;39.40;;;;;;;;;;4431936;32;20278;-55
2022/04/20 08:34:38;;;;;;;76.23;41.83;;;;;;;;;;4432961;32;20322;-56
2022/04/20 08:37:04;;;;;;;75.40;44.07;;;;;;;;;;4431500;32;20244;-57
2022/04/20 08:39:29;;;;;;;77.37;43.53;;;;;;;;;;4432033;32;20388;-56
2022/04/20 08:41:55;;;;;;;66.87;36.80;;;;;;;;;;4432425;32;20225;-56
2022/04/20 08:44:28;;;;;;;66.17;39.47;;;;;;;;;;4424162;32;20656;-54
2022/04/20 08:46:56;;;;;;;62.10;37.53;;;;;;;;;;4438381;32;20901;-54
2022/04/20 08:49:22;;;;;;;70.47;42.60;;;;;;;;;;4446905;32;20475;-55
2022/04/20 08:54:34;;;;;;;70.53;37.57;;;;;;;;;;4431251;32;20231;-55
2022/04/20 08:57:19;;;;;;;74.20;43.73;;;;;;;;;;4430352;32;20323;-53
2022/04/20 08:59:48;;;;;;;64.83;40.03;;;;;;;;;;4429956;32;20307;-55
2022/04/20 09:02:15;;;;;;;65.90;43.13;;;;;;;;;;4432597;32;20238;-53
2022/04/20 09:04:41;;;;;;;65.03;39.57;;;;;;;;;;4448533;32;20231;-55
2022/04/20 09:07:07;;;;;;;67.70;41.53;;;;;;;;;;4433111;32;20549;-54
2022/04/20 09:09:33;;;;;;;75.13;44.33;;;;;;;;;;4430421;32;20320;-55
2022/04/20 09:11:59;;;;;;;58.23;34.70;;;;;;;;;;4429293;32;20638;-54
2022/04/20 09:14:28;;;;;;;62.57;36.13;;;;;;;;;;4428995;32;20249;-54
2022/04/20 09:16:55;;;;;;;70.13;41.83;;;;;;;;;;4416361;32;20300;-55
2022/04/20 09:19:25;;;;;;;77.60;41.67;;;;;;;;;;4429565;32;20311;-54
2022/04/20 09:21:52;;;;;;;62.70;40.57;;;;;;;;;;4431386;32;20384;-54
2022/04/20 09:24:17;;;;;;;61.80;38.60;;;;;;;;;;4429579;32;20283;-55
2022/04/20 09:26:57;;;;;;;57.67;37.97;;;;;;;;;;4430794;32;20286;-54
2022/04/20 09:29:23;;;;;;;59.73;37.73;;;;;;;;;;4427687;32;20641;-55
2022/04/20 09:31:53;;;;;;;60.60;39.27;;;;;;;;;;4431120;32;20221;-56
2022/04/20 09:34:24;;;;;;;66.53;40.90;;;;;;;;;;4429956;32;20252;-53
2022/04/20 09:36:50;;;;;;;61.90;37.97;;;;;;;;;;4430950;32;20322;-54
2022/04/20 09:39:15;;;;;;;68.80;37.40;;;;;;;;;;4432052;32;20256;-55
2022/04/20 09:42:02;;;;;;;56.07;38.57;;;;;;;;;;4430476;32;20372;-53
2022/04/20 09:44:30;;;;;;;59.97;41.20;;;;;;;;;;4429048;32;20295;-55
2022/04/20 09:50:03;;;;;;;72.10;42.20;;;;;;;;;;4428656;32;20392;-54
2022/04/20 09:52:42;;;;;;;72.33;43.97;;;;;;;;;;4431297;32;20229;-55
2022/04/20 09:55:13;;;;;;;72.40;43.17;;;;;;;;;;4430982;32;20347;-55
2022/04/20 09:57:39;;;;;;;58.60;37.93;;;;;;;;;;4431588;32;21970;-54
2022/04/20 10:00:10;;;;;;;61.80;39.00;;;;;;;;;;4430608;32;20283;-53
2022/04/20 10:02:54;;;;;;;58.53;40.13;;;;;;;;;;4431438;32;20368;-55
2022/04/20 10:05:22;;;;;;;62.97;38.27;;;;;;;;;;4428313;32;20275;-55
2022/04/20 10:07:47;;;;;;;70.07;42.77;;;;;;;;;;4427948;32;20693;-55
2022/04/20 10:10:14;;;;;;;67.97;40.77;;;;;;;;;;4417871;32;20221;-54
2022/04/20 10:12:41;;;;;;;57.70;37.33;;;;;;;;;;4416845;32;20267;-54
2022/04/20 10:17:57;;;;;;;20.00;15.80;;;;;;;;;;4431369;32;20263;-54
2022/04/20 10:20:25;;;;;;;25.17;16.60;;;;;;;;;;4428072;32;20234;-54
2022/04/20 10:22:51;;;;;;;22.13;11.57;;;;;;;;;;4441764;32;20588;-54
2022/04/20 10:25:16;;;;;;;15.77;11.27;;;;;;;;;;4439053;32;20354;-53
2022/04/20 10:27:57;;;;;;;16.67;11.20;;;;;;;;;;4444523;32;20308;-54
2022/04/20 10:30:45;;;;;;;12.10;9.57;;;;;;;;;;4430570;32;20224;-53
2022/04/20 10:33:23;;;;;;;16.10;10.00;;;;;;;;;;4435134;32;20972;-54
2022/04/20 10:36:04;;;;;;;24.10;11.00;;;;;;;;;;4444545;32;20548;-55
2022/04/20 10:38:31;;;;;;;20.67;12.23;;;;;;;;;;4442856;32;20586;-54
2022/04/20 10:41:02;;;;;;;26.40;15.70;;;;;;;;;;4429529;32;20613;-55
2022/04/20 10:43:28;;;;;;;30.67;18.10;;;;;;;;;;4430354;32;20334;-54
2022/04/20 10:46:14;;;;;;;31.47;19.97;;;;;;;;;;4430991;32;20213;-54
2022/04/20 10:48:58;;;;;;;29.53;18.23;;;;;;;;;;4431566;32;20276;-54
2022/04/20 10:51:30;;;;;;;27.73;18.90;;;;;;;;;;4444283;32;20257;-54
2022/04/20 10:54:24;;;;;;;31.30;18.87;;;;;;;;;;4440324;32;20244;-55
2022/04/20 10:57:09;;;;;;;33.20;17.60;;;;;;;;;;4428112;32;20604;-54
2022/04/20 10:59:37;;;;;;;25.70;16.73;;;;;;;;;;4437943;32;20293;-54
2022/04/20 11:02:02;;;;;;;27.33;18.20;;;;;;;;;;4435505;32;20220;-54
2022/04/20 11:04:41;;;;;;;22.33;16.77;;;;;;;;;;4434792;32;20532;-54
2022/04/20 11:07:07;;;;;;;26.40;17.83;;;;;;;;;;4430976;32;20276;-54
2022/04/20 11:09:45;;;;;;;27.10;18.50;;;;;;;;;;4439275;32;20644;-54
2022/04/20 11:21:09;;;;;;;23.17;14.67;;;;;;;;;;4440537;32;20256;-55
2022/04/20 11:23:59;;;;;;;25.13;14.50;;;;;;;;;;4417947;32;20410;-55
2022/04/20 11:26:33;;;;;;;21.27;15.90;;;;;;;;;;4415814;32;20210;-54
2022/04/20 11:29:12;;;;;;;21.53;15.60;;;;;;;;;;4421871;32;20240;-55
2022/04/20 11:31:42;;;;;;;23.60;16.37;;;;;;;;;;4432198;32;20322;-55
2022/04/20 11:34:08;;;;;;;22.63;15.40;;;;;;;;;;4431345;32;20240;-54
2022/04/20 11:36:37;;;;;;;28.80;16.80;;;;;;;;;;4418534;32;20279;-55
2022/04/20 11:39:03;;;;;;;29.70;18.87;;;;;;;;;;4433553;32;20240;-54
2022/04/20 11:41:28;;;;;;;24.73;17.40;;;;;;;;;;4434992;32;20266;-55
2022/04/20 11:43:54;;;;;;;33.03;18.83;;;;;;;;;;4434389;32;20755;-55
2022/04/20 11:46:20;;;;;;;27.40;18.07;;;;;;;;;;4435709;32;20233;-54
2022/04/20 11:48:53;;;;;;;22.87;17.40;;;;;;;;;;4434885;32;20559;-54
2022/04/20 11:51:25;;;;;;;27.63;18.97;;;;;;;;;;4435136;32;20220;-54
2022/04/20 11:53:52;;;;;;;31.17;21.33;;;;;;;;;;4434009;32;20228;-55
2022/04/20 11:56:32;;;;;;;27.90;17.37;;;;;;;;;;4435543;32;20304;-54
2022/04/20 11:58:58;;;;;;;30.17;17.07;;;;;;;;;;4434476;32;20263;-54
2022/04/20 12:01:25;;;;;;;27.57;17.90;;;;;;;;;;4430441;32;20204;-55
2022/04/20 12:03:51;;;;;;;23.50;17.23;;;;;;;;;;4438503;32;20675;-56
2022/04/20 12:06:18;;;;;;;17.70;13.93;;;;;;;;;;4434281;32;20337;-55
2022/04/20 12:08:45;;;;;;;22.23;12.97;;;;;;;;;;4424009;32;20270;-54
2022/04/20 12:11:11;;;;;;;28.37;16.10;;;;;;;;;;4449911;32;20208;-54
2022/04/20 12:13:40;;;;;;;28.27;18.53;;;;;;;;;;4447716;32;20279;-54
2022/04/20 12:16:08;;;;;;;30.23;19.77;;;;;;;;;;4435680;32;20196;-58
2022/04/20 12:18:42;;;;;;;32.50;20.43;;;;;;;;;;4448192;32;20387;-55
2022/04/20 12:21:43;;;;;;;35.80;21.27;;;;;;;;;;4434971;32;20692;-54
2022/04/20 12:24:25;;;;;;;18.27;11.67;;;;;;;;;;4437575;32;20291;-55
2022/04/20 12:26:52;;;;;;;8.67;7.17;;;;;;;;;;4435058;32;20637;-55
2022/04/20 12:29:22;;;;;;;9.30;6.80;;;;;;;;;;4434595;32;20633;-55
2022/04/20 12:31:51;;;;;;;11.67;7.03;;;;;;;;;;4435010;32;20272;-55
2022/04/20 12:34:19;;;;;;;12.17;7.33;;;;;;;;;;4434376;32;20682;-54
2022/04/20 12:36:57;;;;;;;8.83;7.23;;;;;;;;;;4434799;32;20201;-55
2022/04/20 12:39:29;;;;;;;9.60;7.13;;;;;;;;;;4435532;32;20267;-55
2022/04/20 12:41:56;;;;;;;11.17;7.37;;;;;;;;;;4432954;32;20668;-55
2022/04/20 12:44:46;;;;;;;15.27;9.60;;;;;;;;;;4434921;32;20632;-54
2022/04/20 12:47:12;;;;;;;12.23;7.23;;;;;;;;;;4433065;32;20376;-54
2022/04/20 12:49:38;;;;;;;8.67;5.27;;;;;;;;;;4418023;32;20327;-55
2022/04/20 12:52:14;;;;;;;10.97;6.80;;;;;;;;;;4419030;32;20235;-55
2022/04/20 12:55:00;;;;;;;6.40;4.57;;;;;;;;;;4431669;32;20252;-55
2022/04/20 13:03:02;;;;;;;5.40;3.67;;;;;;;;;;4430760;32;20265;-55
2022/04/20 13:05:32;;;;;;;10.10;5.30;;;;;;;;;;4434191;32;20254;-55
2022/04/20 13:07:59;;;;;;;12.73;7.13;;;;;;;;;;4434549;32;20251;-56
2022/04/20 13:10:24;;;;;;;8.10;4.57;;;;;;;;;;4432323;32;20247;-56
2022/04/20 13:12:51;;;;;;;4.97;3.60;;;;;;;;;;4432218;32;20572;-55
2022/04/20 13:15:17;;;;;;;6.70;3.33;;;;;;;;;;4431929;32;20681;-54
2022/04/20 13:17:43;;;;;;;7.07;3.43;;;;;;;;;;4443815;32;20584;-55
2022/04/20 13:20:09;;;;;;;2.70;2.43;;;;;;;;;;4435924;32;20272;-54
2022/04/20 13:22:34;;;;;;;2.90;2.23;;;;;;;;;;4432765;32;20251;-54
2022/04/20 13:27:56;;;;;;;3.47;1.93;;;;;;;;;;4433696;32;20659;-55
2022/04/20 13:30:21;;;;;;;3.43;2.07;;;;;;;;;;4425074;32;20371;-55
2022/04/20 13:32:48;;;;;;;2.00;1.43;;;;;;;;;;4449674;32;20459;-55
2022/04/20 13:35:14;;;;;;;2.23;1.77;;;;;;;;;;4420833;32;20235;-55
2022/04/20 13:37:39;;;;;;;1.63;1.23;;;;;;;;;;4431407;32;20806;-55
2022/04/20 13:40:05;;;;;;;12.87;2.23;;;;;;;;;;4431925;32;20789;-55
2022/04/20 13:42:32;;;;;;;3.63;2.30;;;;;;;;;;4432602;32;20236;-55
2022/04/20 13:44:57;;;;;;;2.23;1.87;;;;;;;;;;4432040;32;20292;-55
2022/04/20 13:47:23;;;;;;;4.80;3.10;;;;;;;;;;4431310;32;20277;-54
2022/04/20 13:49:49;;;;;;;3.67;2.57;;;;;;;;;;4432519;32;20250;-54
2022/04/20 13:52:14;;;;;;;6.93;3.80;;;;;;;;;;4432256;32;20239;-55
2022/04/20 13:54:40;;;;;;;2.67;1.80;;;;;;;;;;4432165;32;20337;-56
2022/04/20 13:57:05;;;;;;;5.97;2.70;;;;;;;;;;4430772;32;20304;-55
2022/04/20 13:59:31;;;;;;;6.87;4.37;;;;;;;;;;4415381;32;20349;-55
2022/04/20 14:01:56;;;;;;;50.63;26.60;;;;;;;;;;4430392;32;20374;-55
2022/04/20 14:04:22;;;;;;;68.90;31.50;;;;;;;;;;4440128;32;20232;-55
2022/04/20 14:06:47;;;;;;;44.57;24.67;;;;;;;;;;4436767;32;20275;-55
2022/04/20 14:09:13;;;;;;;52.20;29.40;;;;;;;;;;4439556;32;20282;-55
2022/04/20 14:11:38;;;;;;;37.53;18.33;;;;;;;;;;4449700;32;20235;-55
2022/04/20 14:14:04;;;;;;;12.50;7.23;;;;;;;;;;4442921;32;20250;-55
2022/04/20 14:16:31;;;;;;;9.57;6.57;;;;;;;;;;4436869;32;20594;-55
2022/04/20 14:18:57;;;;;;;12.90;7.10;;;;;;;;;;4443913;32;20596;-56
2022/04/20 14:21:23;;;;;;;9.87;6.67;;;;;;;;;;4420814;32;20765;-55
2022/04/20 14:23:48;;;;;;;9.33;6.00;;;;;;;;;;4430272;32;20245;-55
2022/04/20 14:34:26;;;;;;;15.60;9.93;;;;;;;;;;4430512;32;20262;-56
2022/04/20 14:36:52;;;;;;;6.83;4.30;;;;;;;;;;4404937;32;20249;-55
2022/04/20 14:39:17;;;;;;;12.97;7.70;;;;;;;;;;4418967;32;20298;-56
2022/04/20 14:41:42;;;;;;;21.17;10.90;;;;;;;;;;4433109;32;20599;-55
2022/04/20 14:44:09;;;;;;;47.00;19.60;;;;;;;;;;4433228;32;20562;-56
2022/04/20 14:46:35;;;;;;;74.80;37.23;;;;;;;;;;4432371;32;20229;-55
2022/04/20 14:49:01;;;;;;;33.17;14.00;;;;;;;;;;4427139;32;20292;-54
2022/04/20 14:51:27;;;;;;;57.13;21.10;;;;;;;;;;4415937;32;20317;-55
2022/04/20 14:53:53;;;;;;;34.23;18.23;;;;;;;;;;4419275;32;20274;-54
2022/04/20 14:56:18;;;;;;;74.43;33.60;;;;;;;;;;4430827;32;20217;-55
2022/04/20 14:58:44;;;;;;;51.80;23.47;;;;;;;;;;4432920;32;20287;-55
2022/04/20 15:01:10;;;;;;;77.70;36.73;;;;;;;;;;4441877;32;20244;-55
2022/04/20 15:03:35;;;;;;;42.67;20.10;;;;;;;;;;4440211;32;20299;-56
2022/04/20 15:06:01;;;;;;;12.17;8.97;;;;;;;;;;4412108;32;20756;-55
2022/04/20 15:08:26;;;;;;;26.73;14.17;;;;;;;;;;4405437;32;20577;-55
2022/04/20 15:11:13;;;;;;;23.53;11.73;;;;;;;;;;4491515;31;20373;-55